createdAt,value
2018-08-16T00:02:25.020Z,94.30
2018-08-16T00:04:53.536Z,94.30
2018-08-16T00:07:21.928Z,94.60
2018-08-16T00:09:50.311Z,94.80
2018-08-16T00:12:18.804Z,94.90
2018-08-16T00:14:47.204Z,95.20
2018-08-16T00:17:15.669Z,95.00
2018-08-16T00:19:44.073Z,94.90
2018-08-16T00:22:13.444Z,95.40
2018-08-16T00:24:41.924Z,95.20
2018-08-16T00:27:10.343Z,95.40
2018-08-16T00:29:38.781Z,95.60
2018-08-16T00:32:07.233Z,95.70
2018-08-16T00:34:35.603Z,96.00
2018-08-16T00:37:04.064Z,96.10
2018-08-16T00:39:32.444Z,96.40
2018-08-16T00:42:00.871Z,96.70
2018-08-16T00:44:29.295Z,96.80
2018-08-16T00:46:57.704Z,96.90
2018-08-16T00:49:26.129Z,96.50
2018-08-16T00:51:54.602Z,96.70
2018-08-16T00:54:23.077Z,97.10
2018-08-16T00:56:52.407Z,97.30
2018-08-16T00:59:20.829Z,97.10
2018-08-16T01:01:49.250Z,97.00
2018-08-16T01:04:17.713Z,97.20
2018-08-16T01:06:46.167Z,97.30
2018-08-16T01:09:14.556Z,97.40
2018-08-16T01:11:43.004Z,97.40
2018-08-16T01:14:11.520Z,97.50
2018-08-16T01:16:39.896Z,97.50
2018-08-16T01:19:08.335Z,97.60
2018-08-16T01:21:36.757Z,97.90
2018-08-16T01:24:05.169Z,97.80
2018-08-16T01:26:33.658Z,97.90
2018-08-16T01:29:02.120Z,98.20
2018-08-16T01:31:31.487Z,98.00
2018-08-16T01:33:59.926Z,97.90
2018-08-16T01:36:28.365Z,97.80
2018-08-16T01:38:56.747Z,98.10
2018-08-16T01:41:25.422Z,98.20
2018-08-16T01:43:54.030Z,98.10
2018-08-16T01:46:22.607Z,98.10
2018-08-16T01:48:51.016Z,98.60
2018-08-16T01:51:19.518Z,98.60
2018-08-16T01:53:47.977Z,99.00
2018-08-16T01:56:16.451Z,99.30
2018-08-16T01:58:44.934Z,99.40
2018-08-16T02:01:13.382Z,99.10
2018-08-16T02:03:41.844Z,99.00
2018-08-16T02:06:10.579Z,99.20
2018-08-16T02:08:39.127Z,99.20
2018-08-16T02:11:07.617Z,99.60
2018-08-16T02:13:36.019Z,99.70
2018-08-16T02:16:04.420Z,99.70
2018-08-16T02:18:32.898Z,99.70
2018-08-16T02:21:01.350Z,99.30
2018-08-16T02:23:29.718Z,99.10
2018-08-16T02:25:58.167Z,99.30
2018-08-16T02:28:26.561Z,99.50
2018-08-16T02:30:55.152Z,99.80
2018-08-16T02:33:23.630Z,99.80
2018-08-16T02:35:52.083Z,99.80
2018-08-16T02:38:20.492Z,99.80
2018-08-16T02:40:49.475Z,99.80
2018-08-16T02:43:17.934Z,99.80
2018-08-16T02:45:46.376Z,99.80
2018-08-16T02:48:15.103Z,99.80
2018-08-16T02:50:43.507Z,99.80
2018-08-16T02:53:11.920Z,99.80
2018-08-16T02:55:40.361Z,99.80
2018-08-16T02:58:08.751Z,99.80
2018-08-16T03:00:37.135Z,99.80
2018-08-16T03:03:05.739Z,99.80
2018-08-16T03:05:34.235Z,99.70
2018-08-16T03:08:02.646Z,99.80
2018-08-16T03:10:31.056Z,99.80
2018-08-16T03:12:59.494Z,99.80
2018-08-16T03:15:28.616Z,99.80
2018-08-16T03:17:57.065Z,99.80
2018-08-16T03:20:25.480Z,99.80
2018-08-16T03:22:53.876Z,99.80
2018-08-16T03:25:22.424Z,99.80
2018-08-16T03:27:50.755Z,99.80
2018-08-16T03:30:19.197Z,99.80
2018-08-16T03:32:47.619Z,99.80
2018-08-16T03:35:16.038Z,99.80
2018-08-16T03:37:44.456Z,99.80
2018-08-16T03:42:54.838Z,99.80
2018-08-16T03:45:23.341Z,99.80
2018-08-16T03:47:59.183Z,99.80
2018-08-16T03:50:27.843Z,99.80
2018-08-16T03:52:56.324Z,99.80
2018-08-16T03:55:24.737Z,99.80
2018-08-16T03:57:53.228Z,99.80
2018-08-16T04:00:21.649Z,99.80
2018-08-16T04:02:50.063Z,99.80
2018-08-16T04:05:18.704Z,99.80
2018-08-16T06:19:56.929Z,99.80
2018-08-16T06:22:25.459Z,96.40
2018-08-16T06:24:58.136Z,96.40
2018-08-16T06:27:31.293Z,96.30
2018-08-16T06:30:17.266Z,95.90
2018-08-16T06:32:54.149Z,94.60
2018-08-16T06:35:31.638Z,94.40
2018-08-16T06:38:00.180Z,95.40
2018-08-16T06:40:40.520Z,95.10
2018-08-16T06:43:16.782Z,95.00
2018-08-16T06:45:49.477Z,95.30
2018-08-16T06:48:26.176Z,95.70
2018-08-16T06:51:01.865Z,95.20
2018-08-16T06:53:37.214Z,94.80
2018-08-16T06:56:17.589Z,94.70
2018-08-16T06:58:49.272Z,94.70
2018-08-16T07:01:28.509Z,94.20
2018-08-16T07:04:08.893Z,94.00
2018-08-16T07:06:42.643Z,93.70
2018-08-16T07:09:19.517Z,93.00
2018-08-16T07:11:50.715Z,92.40
2018-08-16T07:14:22.595Z,91.50
2018-08-16T07:17:13.406Z,91.10
2018-08-16T07:19:47.559Z,89.80
2018-08-16T07:22:47.347Z,88.00
2018-08-16T07:25:32.355Z,87.50
2018-08-16T07:28:08.199Z,87.10
2018-08-16T07:30:52.017Z,87.00
2018-08-16T07:33:50.936Z,87.00
2018-08-16T10:39:40.490Z,56.90
2018-08-16T10:42:28.824Z,56.60
2018-08-16T11:11:59.830Z,55.40
2018-08-16T11:21:24.257Z,53.50
2018-08-16T12:23:55.273Z,50.80
2018-08-16T12:26:23.891Z,27.40
2018-08-16T12:28:56.409Z,28.10
2018-08-16T12:31:29.881Z,27.70
2018-08-16T12:33:58.456Z,27.40
2018-08-16T12:36:29.089Z,26.80
2018-08-16T12:38:58.245Z,27.30
2018-08-16T12:41:27.381Z,27.10
2018-08-16T12:43:57.100Z,27.40
2018-08-16T12:46:29.112Z,27.20
2018-08-16T12:48:58.905Z,26.90
2018-08-16T12:51:31.048Z,27.00
2018-08-16T12:53:59.685Z,27.00
2018-08-16T12:56:29.714Z,28.00
2018-08-16T12:59:14.197Z,28.90
2018-08-16T13:02:11.841Z,31.60
2018-08-16T13:04:40.252Z,31.10
2018-08-16T13:07:08.720Z,32.30
2018-08-16T13:09:37.110Z,33.40
2018-08-16T13:12:05.784Z,35.90
2018-08-16T13:14:34.267Z,36.70
2018-08-16T13:17:02.726Z,37.00
2018-08-16T13:19:31.165Z,37.20
2018-08-16T13:21:59.671Z,37.40
2018-08-16T13:24:28.081Z,37.40
2018-08-16T13:26:56.524Z,38.10
2018-08-16T13:29:24.993Z,34.80
2018-08-16T13:31:53.575Z,31.50
2018-08-16T13:34:22.077Z,30.70
2018-08-16T13:36:50.532Z,29.50
2018-08-16T13:39:18.925Z,28.10
2018-08-16T13:41:47.564Z,28.00
2018-08-16T13:44:16.022Z,28.40
2018-08-16T13:51:43.130Z,27.90
2018-08-16T13:54:11.637Z,26.10
2018-08-16T13:56:40.107Z,25.70
2018-08-16T13:59:08.730Z,25.20
2018-08-16T14:01:37.284Z,24.40
2018-08-16T14:04:05.822Z,25.40
2018-08-16T14:06:34.442Z,26.80
2018-08-16T14:09:03.187Z,28.20
2018-08-16T14:11:31.618Z,29.20
2018-08-16T14:14:00.116Z,29.10
2018-08-16T14:16:28.750Z,29.70
2018-08-16T14:18:57.260Z,30.90
2018-08-16T14:21:25.672Z,32.60
2018-08-16T14:23:54.419Z,33.70
2018-08-16T14:26:22.880Z,34.90
2018-08-16T14:28:51.644Z,34.80
2018-08-16T14:31:22.122Z,35.60
2018-08-16T14:33:50.646Z,36.70
2018-08-16T14:36:19.234Z,37.20
2018-08-16T14:38:47.754Z,37.40
2018-08-16T14:41:16.184Z,36.80
2018-08-16T14:43:44.678Z,36.50
2018-08-16T14:46:13.092Z,36.50
2018-08-16T14:48:42.455Z,35.60
2018-08-16T14:51:11.009Z,36.60
2018-08-16T14:53:39.489Z,35.60
2018-08-16T14:56:07.985Z,35.50
2018-08-16T14:58:36.434Z,35.40
2018-08-16T15:01:04.929Z,35.80
2018-08-16T15:03:33.374Z,36.40
2018-08-16T15:06:01.808Z,35.70
2018-08-16T15:08:30.219Z,34.80
2018-08-16T15:10:58.628Z,33.20
2018-08-16T15:13:27.107Z,32.00
2018-08-16T15:15:55.510Z,32.20
2018-08-16T15:18:23.917Z,32.10
2018-08-16T15:20:52.370Z,33.30
2018-08-16T15:23:21.759Z,35.20
2018-08-16T15:25:50.179Z,36.20
2018-08-16T15:28:19.484Z,36.30
2018-08-16T15:30:47.937Z,36.70
2018-08-16T15:33:16.373Z,36.80
2018-08-16T15:35:44.791Z,36.80
2018-08-16T15:38:13.288Z,37.60
2018-08-16T15:40:41.790Z,38.90
2018-08-16T15:43:10.564Z,39.10
2018-08-16T15:45:39.012Z,39.40
2018-08-16T15:48:13.687Z,40.10
2018-08-16T15:50:42.888Z,40.50
2018-08-16T15:53:11.434Z,40.10
2018-08-16T15:55:39.884Z,40.50
2018-08-16T15:58:10.433Z,39.90
2018-08-16T16:00:38.837Z,40.20
2018-08-16T16:03:07.292Z,41.30
2018-08-16T16:05:35.934Z,41.00
2018-08-16T16:08:04.573Z,39.20
2018-08-16T16:10:33.004Z,38.50
2018-08-16T16:13:01.706Z,37.70
2018-08-16T16:15:30.147Z,38.20
2018-08-16T16:17:58.881Z,38.90
2018-08-16T16:20:27.308Z,39.10
2018-08-16T16:22:55.705Z,39.00
2018-08-16T16:25:24.201Z,39.20
2018-08-16T16:27:52.743Z,40.10
2018-08-16T16:30:21.250Z,40.60
2018-08-16T16:32:49.688Z,40.70
2018-08-16T16:35:18.117Z,40.70
2018-08-16T16:37:46.547Z,40.50
2018-08-16T16:40:15.024Z,40.00
2018-08-16T16:42:43.512Z,40.10
2018-08-16T16:45:12.029Z,39.80
2018-08-16T16:47:40.558Z,39.50
2018-08-16T16:50:09.355Z,40.00
2018-08-16T16:52:37.872Z,39.80
2018-08-16T16:55:06.365Z,39.70
2018-08-16T16:57:34.837Z,39.20
2018-08-16T17:00:03.315Z,39.30
2018-08-16T17:02:31.742Z,38.70
2018-08-16T17:05:00.161Z,37.90
2018-08-16T17:07:28.721Z,36.90
2018-08-16T17:09:57.139Z,36.20
2018-08-16T17:12:25.637Z,37.00
2018-08-16T17:14:54.045Z,36.60
2018-08-16T17:17:22.502Z,37.60
2018-08-16T17:19:50.925Z,37.50
2018-08-16T17:22:19.364Z,38.10
2018-08-16T17:24:47.869Z,37.50
2018-08-16T17:27:16.305Z,38.20
2018-08-16T17:29:44.704Z,38.80
2018-08-16T17:32:13.163Z,39.20
2018-08-16T17:34:41.571Z,40.00
2018-08-16T17:37:10.021Z,40.50
2018-08-16T17:39:38.472Z,40.90
2018-08-16T17:42:07.102Z,41.30
2018-08-16T17:44:35.552Z,41.70
2018-08-16T17:47:04.073Z,42.20
2018-08-16T17:49:32.473Z,42.30
2018-08-16T17:52:00.961Z,42.80
2018-08-16T17:54:29.352Z,43.00
2018-08-16T17:56:57.792Z,43.60
2018-08-16T17:59:26.219Z,43.50
2018-08-16T18:01:54.641Z,43.90
2018-08-16T18:04:23.044Z,44.10
2018-08-16T18:06:51.496Z,44.50
2018-08-16T18:09:19.895Z,44.80
2018-08-16T18:11:48.590Z,44.20
2018-08-16T18:14:16.992Z,44.80
2018-08-16T18:16:45.572Z,45.10
2018-08-16T18:19:16.713Z,45.40
2018-08-16T18:21:45.188Z,45.70
2018-08-16T18:24:13.710Z,46.00
2018-08-16T18:26:42.614Z,46.80
2018-08-16T18:29:11.005Z,46.80
2018-08-16T18:31:40.156Z,47.00
2018-08-16T18:34:09.065Z,47.40
2018-08-16T18:36:37.728Z,48.30
2018-08-16T18:39:08.120Z,49.30
2018-08-16T18:41:36.717Z,50.40
2018-08-16T18:44:05.177Z,52.50
2018-08-16T18:46:33.608Z,53.20
2018-08-16T18:49:02.045Z,53.80
2018-08-16T18:51:30.438Z,54.20
2018-08-16T18:53:58.843Z,54.60
2018-08-16T18:56:27.286Z,55.10
2018-08-16T18:58:55.707Z,55.50
2018-08-16T19:01:24.176Z,55.90
2018-08-16T19:03:52.749Z,56.30
2018-08-16T19:06:21.173Z,57.00
2018-08-16T19:08:49.620Z,55.90
2018-08-16T19:11:18.155Z,56.10
2018-08-16T19:13:46.576Z,56.60
2018-08-16T19:16:14.999Z,56.40
2018-08-16T19:18:43.486Z,56.50
2018-08-16T19:21:11.910Z,56.40
2018-08-16T19:23:40.349Z,56.70
2018-08-16T19:26:08.825Z,56.70
2018-08-16T19:28:37.647Z,56.80
2018-08-16T19:31:06.084Z,57.20
2018-08-16T19:33:34.545Z,57.20
2018-08-16T19:36:02.974Z,57.30
2018-08-16T19:38:31.416Z,57.40
2018-08-16T19:40:59.801Z,57.90
2018-08-16T19:43:28.293Z,58.40
2018-08-16T19:45:56.837Z,59.00
2018-08-16T19:48:25.396Z,60.00
2018-08-16T19:50:53.761Z,60.20
2018-08-16T19:53:22.160Z,60.10
2018-08-16T19:55:50.610Z,59.90
2018-08-16T19:58:19.052Z,59.60
2018-08-16T20:00:47.599Z,59.30
2018-08-16T20:03:16.073Z,60.20
2018-08-16T20:05:44.467Z,60.10
2018-08-16T20:08:12.897Z,61.00
2018-08-16T20:10:41.347Z,61.10
2018-08-16T20:13:10.556Z,61.30
2018-08-16T20:15:39.064Z,61.20
2018-08-16T20:18:07.515Z,62.20
2018-08-16T20:20:36.112Z,62.50
2018-08-16T20:23:04.583Z,61.40
2018-08-16T20:25:33.125Z,61.60
2018-08-16T20:28:01.540Z,62.00
2018-08-16T20:30:29.942Z,62.10
2018-08-16T20:32:58.364Z,62.30
2018-08-16T20:35:30.499Z,62.40
2018-08-16T20:40:55.115Z,63.60
2018-08-16T20:43:23.672Z,64.30
2018-08-16T20:45:52.487Z,63.10
2018-08-16T20:48:20.929Z,63.70
2018-08-16T20:50:49.424Z,63.10
2018-08-16T20:53:21.112Z,63.40
2018-08-16T20:55:49.572Z,64.70
2018-08-16T20:58:18.679Z,64.40
2018-08-16T21:00:47.166Z,65.00
2018-08-16T21:03:15.996Z,65.20
2018-08-16T21:05:44.426Z,65.20
2018-08-16T21:08:13.174Z,64.40
2018-08-16T21:10:41.676Z,64.70
2018-08-16T21:13:10.303Z,64.40
2018-08-16T21:15:38.773Z,65.20
2018-08-16T21:18:07.229Z,65.00
2018-08-16T21:20:35.840Z,65.20
2018-08-16T21:23:04.264Z,65.00
2018-08-16T21:25:32.657Z,65.20
2018-08-16T21:28:01.121Z,65.50
2018-08-16T21:30:29.541Z,65.70
2018-08-16T21:32:57.891Z,65.80
2018-08-16T21:35:26.429Z,66.20
2018-08-16T21:37:54.905Z,66.50
2018-08-16T21:40:23.417Z,66.70
2018-08-16T21:42:51.838Z,67.10
2018-08-16T21:45:20.232Z,67.40
2018-08-16T21:47:48.648Z,68.00
2018-08-16T21:50:17.089Z,68.40
2018-08-16T21:52:45.553Z,68.40
2018-08-16T21:55:14.016Z,67.90
2018-08-16T21:57:42.459Z,67.70
2018-08-16T22:00:11.819Z,67.40
2018-08-16T22:02:40.279Z,68.20
2018-08-16T22:05:08.715Z,67.90
2018-08-16T22:08:14.128Z,68.00
2018-08-16T22:10:43.691Z,68.80
2018-08-16T22:13:12.162Z,69.60
2018-08-16T22:15:40.671Z,70.00
2018-08-16T22:18:09.406Z,70.30
2018-08-16T22:20:37.867Z,69.50
2018-08-16T22:23:06.331Z,69.80
2018-08-16T22:25:34.813Z,70.70
2018-08-16T22:28:03.601Z,71.30
2018-08-16T22:30:32.002Z,71.60
2018-08-16T22:33:00.376Z,72.70
2018-08-16T22:35:28.883Z,73.40
2018-08-16T22:37:57.272Z,72.70
2018-08-16T22:40:25.658Z,72.40
2018-08-16T22:42:54.092Z,71.80
2018-08-16T22:45:22.511Z,71.60
2018-08-16T22:47:50.917Z,71.60
2018-08-16T22:50:19.396Z,72.20
2018-08-16T22:52:47.739Z,72.60
2018-08-16T22:55:16.157Z,72.20
2018-08-16T22:57:44.594Z,73.10
2018-08-16T23:00:13.140Z,72.60
2018-08-16T23:02:42.845Z,72.50
2018-08-16T23:05:11.391Z,72.80
2018-08-16T23:07:39.806Z,73.10
2018-08-16T23:10:08.210Z,73.90
2018-08-16T23:12:36.615Z,73.60
2018-08-16T23:15:05.951Z,74.00
2018-08-16T23:17:34.431Z,74.10
2018-08-16T23:20:03.847Z,74.10
2018-08-16T23:22:32.275Z,74.70
2018-08-16T23:25:00.720Z,74.80
2018-08-16T23:27:29.145Z,74.90
2018-08-16T23:29:57.580Z,74.60
2018-08-16T23:32:26.045Z,74.80
2018-08-16T23:34:54.535Z,74.90
2018-08-16T23:37:22.988Z,75.40
2018-08-16T23:39:51.477Z,75.60
2018-08-16T23:42:19.903Z,76.30
2018-08-16T23:44:48.322Z,76.60
2018-08-16T23:47:21.554Z,76.30
2018-08-16T23:49:50.030Z,76.90
2018-08-16T23:52:18.453Z,77.20
2018-08-16T23:54:46.893Z,76.50
2018-08-16T23:57:15.376Z,76.10
2018-08-16T23:59:43.862Z,76.10
